Time;durP1;ratioP1;P1;durP2;ratioP2;P2;SDS_P1;SDS_P2;PMS_P1;PMS_P2;Temp;Humidity;BMP_temperature;BMP_pressure;BME280_temperature;BME280_humidity;BME280_pressure;Samples;Min_cycle;Max_cycle;Signal;HPM_P1;HPM_P2
2024/03/28 00:01:51;;;;;;;17.70;15.88;;;7.70;99.90;;;;;;4989055;28;20102;-81
2024/03/28 00:04:18;;;;;;;17.30;15.50;;;7.70;99.90;;;;;;5002758;28;20123;-81
2024/03/28 00:06:43;;;;;;;16.58;14.93;;;7.70;99.90;;;;;;4986189;28;20048;-81
2024/03/28 00:09:09;;;;;;;16.63;15.02;;;7.70;99.90;;;;;;4986924;28;20053;-81
2024/03/28 00:11:35;;;;;;;17.63;15.93;;;7.70;99.90;;;;;;5006083;28;20042;-81
2024/03/28 00:14:01;;;;;;;17.80;16.10;;;7.70;99.90;;;;;;4988514;28;20045;-81
2024/03/28 00:16:27;;;;;;;17.67;16.05;;;7.70;99.90;;;;;;5000874;28;20073;-81
2024/03/28 00:18:53;;;;;;;18.17;16.48;;;7.70;99.90;;;;;;4991691;28;20050;-81
2024/03/28 00:21:19;;;;;;;17.92;16.23;;;7.70;99.90;;;;;;5004763;28;20437;-81
2024/03/28 00:23:45;;;;;;;18.52;16.63;;;7.70;99.90;;;;;;5003162;28;20076;-81
2024/03/28 00:26:11;;;;;;;18.50;16.80;;;7.70;99.90;;;;;;5005296;28;20048;-81
2024/03/28 00:28:37;;;;;;;18.83;16.92;;;7.70;99.90;;;;;;4990421;28;20045;-81
2024/03/28 00:31:04;;;;;;;17.88;16.17;;;7.60;99.90;;;;;;4990660;28;20040;-81
2024/03/28 00:33:30;;;;;;;17.70;15.90;;;7.60;99.90;;;;;;4990708;28;20044;-82
2024/03/28 00:35:56;;;;;;;17.92;16.13;;;7.60;99.90;;;;;;5007895;28;20045;-81
2024/03/28 00:38:22;;;;;;;17.92;16.13;;;7.50;99.90;;;;;;4993770;28;20041;-81
2024/03/28 00:40:52;;;;;;;18.65;16.73;;;7.50;99.90;;;;;;4989798;28;20143;-81
2024/03/28 00:43:18;;;;;;;;;;;7.40;99.90;;;;;;4993834;28;20111;-81
2024/03/28 00:45:44;;;;;;;19.02;17.08;;;7.40;99.90;;;;;;4991238;28;20008;-81
2024/03/28 00:48:10;;;;;;;18.80;16.90;;;7.40;99.90;;;;;;5005365;28;20042;-81
2024/03/28 00:50:37;;;;;;;20.05;18.15;;;7.40;99.90;;;;;;5008997;28;20057;-81
2024/03/28 00:53:04;;;;;;;19.52;17.60;;;7.40;99.90;;;;;;4994792;28;20509;-81
2024/03/28 00:55:30;;;;;;;20.23;18.33;;;7.40;99.90;;;;;;5007942;28;20052;-81
2024/03/28 00:57:56;;;;;;;20.45;18.42;;;7.40;99.90;;;;;;4993008;28;20048;-81
2024/03/28 01:00:22;;;;;;;20.40;18.40;;;7.40;99.90;;;;;;5011570;28;20497;-81
2024/03/28 01:02:48;;;;;;;21.10;19.00;;;7.40;99.90;;;;;;4990135;28;20038;-81
2024/03/28 01:05:14;;;;;;;20.05;17.98;;;7.40;99.90;;;;;;4992118;28;20064;-81
2024/03/28 01:07:40;;;;;;;21.52;19.42;;;7.40;99.90;;;;;;4992063;28;20041;-80
2024/03/28 01:10:06;;;;;;;20.25;18.23;;;7.40;99.90;;;;;;4993591;28;20076;-81
2024/03/28 01:12:32;;;;;;;20.50;18.50;;;7.40;99.90;;;;;;4991191;28;20549;-81
2024/03/28 01:14:58;;;;;;;20.67;18.73;;;7.40;99.90;;;;;;5004578;28;20132;-81
2024/03/28 01:17:24;;;;;;;21.23;19.23;;;7.40;99.90;;;;;;4992058;28;20350;-80
2024/03/28 01:19:51;;;;;;;21.77;19.60;;;7.40;99.90;;;;;;4989360;28;20045;-81
2024/03/28 01:22:17;;;;;;;21.85;19.70;;;7.30;99.90;;;;;;5007672;28;20046;-81
2024/03/28 01:24:43;;;;;;;22.60;20.50;;;7.30;99.90;;;;;;4991521;28;20073;-81
2024/03/28 01:27:09;;;;;;;22.80;20.60;;;7.30;99.90;;;;;;5008823;28;20081;-81
2024/03/28 01:29:34;;;;;;;23.35;20.92;;;7.30;99.90;;;;;;5002322;28;20041;-81
2024/03/28 01:32:01;;;;;;;22.52;20.25;;;7.20;99.90;;;;;;4991665;28;20108;-81
2024/03/28 01:34:27;;;;;;;22.77;20.63;;;7.30;99.90;;;;;;4993107;28;20107;-81
2024/03/28 01:36:54;;;;;;;23.63;21.33;;;7.30;99.90;;;;;;4991325;28;20525;-81
2024/03/28 01:39:19;;;;;;;24.23;21.92;;;7.20;99.90;;;;;;4991559;28;20049;-81
2024/03/28 01:41:53;;;;;;;24.92;22.35;;;7.20;99.90;;;;;;5007231;28;20482;-81
2024/03/28 01:44:20;;;;;;;25.73;23.23;;;7.20;99.90;;;;;;4990647;28;20049;-81
2024/03/28 01:46:48;;;;;;;27.50;24.80;;;7.20;99.90;;;;;;5006767;28;20136;-81
2024/03/28 01:49:15;;;;;;;25.30;22.70;;;7.20;99.90;;;;;;4999102;28;20041;-81
2024/03/28 01:51:41;;;;;;;24.27;22.00;;;7.20;99.90;;;;;;4994092;28;20485;-81
2024/03/28 01:54:13;;;;;;;25.23;22.23;;;7.20;99.90;;;;;;4987191;28;20084;-81
2024/03/28 01:56:40;;;;;;;25.10;22.73;;;7.20;99.90;;;;;;4988746;28;20168;-81
2024/03/28 01:59:07;;;;;;;25.67;23.17;;;7.20;99.90;;;;;;4987616;28;20128;-80
2024/03/28 02:01:40;;;;;;;25.70;23.10;;;7.20;99.90;;;;;;5013529;28;20065;-80
2024/03/28 02:04:07;;;;;;;25.45;22.95;;;7.20;99.90;;;;;;4985648;28;20072;-81
2024/03/28 02:06:39;;;;;;;24.58;22.17;;;7.20;99.90;;;;;;4983525;28;20512;-81
2024/03/28 02:09:10;;;;;;;25.45;23.10;;;7.20;99.90;;;;;;4988597;28;20517;-81
2024/03/28 02:11:35;;;;;;;;;;;7.10;99.90;;;;;;4991509;28;20046;-80
2024/03/28 02:14:01;;;;;;;26.83;24.20;;;7.10;99.90;;;;;;4989828;28;19932;-81
2024/03/28 02:16:27;;;;;;;25.42;22.95;;;7.10;99.90;;;;;;4990344;28;20053;-81
2024/03/28 02:18:57;;;;;;;27.90;25.20;;;7.10;99.90;;;;;;4979862;28;20065;-81
2024/03/28 02:21:23;;;;;;;26.65;23.95;;;7.10;99.90;;;;;;4991412;28;20034;-80
2024/03/28 02:23:50;;;;;;;26.63;24.02;;;7.20;99.90;;;;;;4991972;28;20049;-80
2024/03/28 02:26:19;;;;;;;26.50;23.98;;;7.20;99.90;;;;;;5005505;28;20053;-81
2024/03/28 02:28:45;;;;;;;26.70;24.15;;;7.10;99.90;;;;;;4991063;28;20117;-81
2024/03/28 02:31:11;;;;;;;27.75;25.13;;;7.10;99.90;;;;;;4988019;28;20127;-81
2024/03/28 02:33:38;;;;;;;26.85;24.27;;;7.10;99.90;;;;;;5005507;28;20462;-81
2024/03/28 02:36:04;;;;;;;29.55;26.60;;;7.10;99.90;;;;;;4993563;28;20060;-81
2024/03/28 02:38:30;;;;;;;29.27;26.42;;;7.10;99.90;;;;;;4990438;28;20491;-81
2024/03/28 02:40:56;;;;;;;29.00;26.25;;;7.10;99.90;;;;;;4988539;28;20103;-81
2024/03/28 02:43:25;;;;;;;29.38;26.63;;;7.10;99.90;;;;;;4989198;28;20041;-81
2024/03/28 02:45:51;;;;;;;29.90;27.00;;;7.10;99.90;;;;;;4991835;28;20147;-81
2024/03/28 02:48:18;;;;;;;27.63;24.98;;;7.10;99.90;;;;;;4991765;28;20042;-81
2024/03/28 02:50:45;;;;;;;29.55;26.67;;;7.10;99.90;;;;;;5006702;28;20517;-81
2024/03/28 02:53:10;;;;;;;29.25;26.35;;;7.10;99.90;;;;;;5006097;28;20103;-81
2024/03/28 02:55:36;;;;;;;29.25;26.50;;;7.00;99.90;;;;;;5002235;28;20053;-81
2024/03/28 02:58:02;;;;;;;28.40;25.70;;;7.00;99.90;;;;;;5006500;28;20133;-81
2024/03/28 03:00:28;;;;;;;30.65;27.50;;;7.00;99.90;;;;;;4986954;28;20508;-82
2024/03/28 03:02:54;;;;;;;29.88;27.17;;;7.10;99.90;;;;;;4991959;28;20517;-82
2024/03/28 03:05:20;;;;;;;29.90;26.98;;;7.10;99.90;;;;;;5000059;28;21451;-82
2024/03/28 03:07:48;;;;;;;30.45;27.65;;;7.10;99.90;;;;;;5034293;28;20056;-82
2024/03/28 03:10:15;;;;;;;31.08;28.02;;;7.00;99.90;;;;;;4989152;28;20045;-82
2024/03/28 03:12:42;;;;;;;31.25;28.17;;;7.00;99.90;;;;;;4990342;28;20135;-82
2024/03/28 03:15:09;;;;;;;30.75;27.85;;;7.00;99.90;;;;;;4988200;28;20794;-82
2024/03/28 03:17:35;;;;;;;33.13;30.08;;;7.00;99.90;;;;;;5038385;28;20398;-82
2024/03/28 03:20:07;;;;;;;31.67;28.52;;;7.00;99.90;;;;;;5007124;28;20045;-82
2024/03/28 03:22:37;;;;;;;32.47;29.30;;;7.20;99.90;;;;;;4989898;28;20046;-82
2024/03/28 03:25:11;;;;;;;;;;;7.00;99.90;;;;;;4988827;28;20459;-81
2024/03/28 03:34:34;;;;;;;32.45;29.23;;;7.00;99.90;;;;;;4988770;28;19924;-82
2024/03/28 03:35:53;;;;;;;30.52;27.73;;;7.00;99.90;;;;;;5007637;28;20049;-82
2024/03/28 03:38:18;;;;;;;29.70;26.83;;;7.00;99.90;;;;;;5003678;28;20396;-82
2024/03/28 03:40:44;;;;;;;30.45;27.58;;;7.00;99.90;;;;;;4987441;28;20100;-82
2024/03/28 03:43:10;;;;;;;32.88;29.65;;;7.00;99.90;;;;;;4988226;28;20045;-82
2024/03/28 03:45:35;;;;;;;33.03;29.77;;;7.00;99.90;;;;;;4989025;28;20187;-82
2024/03/28 03:48:01;;;;;;;32.65;29.45;;;7.00;99.90;;;;;;5006621;28;20132;-82
2024/03/28 03:50:27;;;;;;;33.65;30.30;;;7.00;99.90;;;;;;5004999;28;20733;-82
2024/03/28 03:52:53;;;;;;;33.05;29.90;;;6.90;99.90;;;;;;4990198;28;20041;-82
2024/03/28 03:55:19;;;;;;;32.38;29.27;;;7.00;99.90;;;;;;5004651;28;20038;-82
2024/03/28 03:57:44;;;;;;;33.63;30.27;;;7.10;99.90;;;;;;4989138;28;20072;-82
2024/03/28 04:00:11;;;;;;;34.17;30.77;;;7.00;99.90;;;;;;4991731;28;20037;-81
2024/03/28 04:02:37;;;;;;;33.40;29.98;;;6.90;99.90;;;;;;5006265;28;20056;-83
2024/03/28 04:05:03;;;;;;;33.03;29.80;;;6.90;99.90;;;;;;5024086;28;20049;-82
2024/03/28 04:07:29;;;;;;;34.88;31.48;;;6.90;99.90;;;;;;4987941;28;20033;-82
2024/03/28 04:09:55;;;;;;;35.78;32.33;;;6.90;99.90;;;;;;4995666;28;20038;-81
2024/03/28 04:12:21;;;;;;;35.38;31.88;;;6.90;99.90;;;;;;5009942;28;20035;-81
2024/03/28 04:14:46;;;;;;;36.50;32.70;;;6.90;99.90;;;;;;5006048;28;20171;-82
2024/03/28 04:17:15;;;;;;;37.08;33.33;;;6.90;99.90;;;;;;4992672;28;20041;-81
2024/03/28 04:19:41;;;;;;;36.58;32.78;;;6.90;99.90;;;;;;4992139;28;20049;-81
2024/03/28 04:22:06;;;;;;;37.65;33.75;;;6.90;99.90;;;;;;4994530;28;20560;-81
2024/03/28 04:24:32;;;;;;;36.28;32.55;;;7.00;99.90;;;;;;4993810;28;20045;-81
2024/03/28 04:26:58;;;;;;;36.90;32.97;;;6.90;99.90;;;;;;4994256;28;20033;-82
2024/03/28 04:29:25;;;;;;;36.40;32.67;;;6.90;99.90;;;;;;4993028;28;20148;-83
2024/03/28 04:31:51;;;;;;;37.30;33.40;;;6.90;99.90;;;;;;5009584;28;20053;-82
2024/03/28 04:34:17;;;;;;;36.60;32.72;;;6.90;99.90;;;;;;4995424;28;20045;-82
2024/03/28 04:36:43;;;;;;;36.30;32.42;;;6.90;99.90;;;;;;4992729;28;20505;-82
2024/03/28 04:39:10;;;;;;;37.63;33.60;;;6.90;99.90;;;;;;5007603;28;20068;-82
2024/03/28 04:41:36;;;;;;;37.90;33.65;;;6.90;99.90;;;;;;4992157;28;20072;-82
2024/03/28 04:44:01;;;;;;;37.58;33.58;;;6.90;99.90;;;;;;5009961;28;20057;-82
2024/03/28 04:46:27;;;;;;;37.58;33.70;;;6.90;99.90;;;;;;4988171;28;20042;-82
2024/03/28 04:48:53;;;;;;;40.10;35.40;;;6.90;99.90;;;;;;4993668;28;20033;-82
2024/03/28 04:51:19;;;;;;;38.13;34.08;;;7.00;99.90;;;;;;5033343;28;20044;-82
2024/03/28 04:53:45;;;;;;;38.55;34.35;;;6.90;99.90;;;;;;4995694;28;20048;-82
2024/03/28 04:56:10;;;;;;;37.50;33.50;;;7.00;99.90;;;;;;4990001;28;20406;-83
2024/03/28 04:58:36;;;;;;;38.95;34.78;;;7.00;99.90;;;;;;5007410;28;20393;-82
2024/03/28 05:01:02;;;;;;;37.80;33.85;;;7.00;99.90;;;;;;4991949;28;20394;-82
2024/03/28 05:03:28;;;;;;;38.63;34.65;;;7.00;99.90;;;;;;5002449;28;20056;-82
2024/03/28 05:05:54;;;;;;;40.90;36.28;;;7.00;99.90;;;;;;5001052;28;20045;-82
2024/03/28 05:08:19;;;;;;;40.80;36.40;;;7.00;99.90;;;;;;4990040;28;20046;-82
2024/03/28 05:10:45;;;;;;;40.88;36.45;;;7.00;99.90;;;;;;4989959;28;20079;-82
2024/03/28 05:13:11;;;;;;;39.13;34.88;;;7.00;99.90;;;;;;5006901;28;20128;-82
2024/03/28 05:15:39;;;;;;;38.38;34.22;;;7.00;99.90;;;;;;4999712;28;20049;-82
2024/03/28 05:18:05;;;;;;;38.85;34.75;;;7.00;99.90;;;;;;4993902;28;20049;-83
2024/03/28 05:20:30;;;;;;;39.92;35.63;;;7.00;99.90;;;;;;5007438;28;20041;-82
2024/03/28 05:22:57;;;;;;;39.38;35.15;;;7.00;99.90;;;;;;4990544;28;20123;-82
2024/03/28 05:25:23;;;;;;;38.28;34.22;;;7.00;99.90;;;;;;5005264;28;20042;-82
2024/03/28 05:27:49;;;;;;;41.08;36.65;;;6.90;99.90;;;;;;5009236;28;20666;-82
2024/03/28 05:30:17;;;;;;;45.97;37.05;;;7.00;99.90;;;;;;5002823;28;20117;-82
2024/03/28 05:32:43;;;;;;;39.85;35.65;;;7.00;99.90;;;;;;4999155;28;20145;-82
2024/03/28 05:35:08;;;;;;;40.72;36.40;;;7.00;99.90;;;;;;4999453;28;20052;-81
2024/03/28 05:37:34;;;;;;;40.33;35.92;;;7.00;99.90;;;;;;4979396;28;20064;-82
2024/03/28 05:40:00;;;;;;;41.00;36.42;;;7.00;99.90;;;;;;5008893;28;20447;-80
2024/03/28 05:42:26;;;;;;;41.10;36.65;;;7.00;99.90;;;;;;5007940;28;20048;-79
2024/03/28 05:44:52;;;;;;;39.90;35.63;;;7.00;99.90;;;;;;5008408;28;20049;-81
2024/03/28 05:47:17;;;;;;;40.40;35.80;;;7.00;99.90;;;;;;5007578;28;20044;-81
2024/03/28 05:49:43;;;;;;;41.67;36.45;;;6.90;99.90;;;;;;4994148;28;20571;-81
2024/03/28 05:52:09;;;;;;;39.38;35.03;;;6.90;99.90;;;;;;5007714;28;20555;-81
2024/03/28 05:54:35;;;;;;;39.60;35.33;;;6.90;99.90;;;;;;5006868;28;20041;-80
2024/03/28 05:57:00;;;;;;;39.92;34.58;;;6.90;99.90;;;;;;5006709;28;20042;-81
2024/03/28 05:59:26;;;;;;;39.65;35.28;;;6.90;99.90;;;;;;5006160;28;20048;-80
2024/03/28 06:01:53;;;;;;;38.25;34.17;;;6.90;99.90;;;;;;5005677;28;20044;-81
2024/03/28 06:04:19;;;;;;;37.58;33.42;;;6.90;99.90;;;;;;4988011;28;20042;-80
2024/03/28 06:06:45;;;;;;;37.47;33.42;;;6.90;99.90;;;;;;4989385;28;20285;-80
2024/03/28 06:09:11;;;;;;;39.67;34.03;;;6.90;99.90;;;;;;5034950;28;20091;-82
2024/03/28 06:11:39;;;;;;;36.65;32.75;;;6.90;99.90;;;;;;4993335;28;20065;-82
2024/03/28 06:14:09;;;;;;;39.03;34.88;;;7.00;99.90;;;;;;5000053;28;20131;-81
2024/03/28 06:16:36;;;;;;;38.80;34.60;;;7.00;99.90;;;;;;5006415;28;20160;-82
2024/03/28 06:19:02;;;;;;;36.85;32.88;;;7.00;99.90;;;;;;5006756;28;20037;-81
2024/03/28 06:21:28;;;;;;;38.97;34.88;;;7.00;99.90;;;;;;4992270;28;20049;-81
2024/03/28 06:23:54;;;;;;;37.83;33.72;;;7.00;99.90;;;;;;4991448;28;20532;-81
2024/03/28 06:26:20;;;;;;;38.97;34.38;;;7.10;99.90;;;;;;4988765;28;20477;-81
2024/03/28 06:28:45;;;;;;;39.78;35.65;;;7.00;99.90;;;;;;5007965;28;20045;-81
2024/03/28 06:31:12;;;;;;;38.15;34.08;;;7.10;99.90;;;;;;4990740;28;20084;-82
2024/03/28 06:33:41;;;;;;;39.13;34.65;;;7.10;99.90;;;;;;5035535;28;20075;-81
2024/03/28 06:36:10;;;;;;;39.72;35.45;;;7.10;99.90;;;;;;4991327;28;20080;-81
2024/03/28 06:38:37;;;;;;;38.22;33.20;;;7.10;99.90;;;;;;5006372;28;20525;-80
2024/03/28 06:41:03;;;;;;;38.22;34.10;;;7.20;99.90;;;;;;4989965;28;20053;-82
2024/03/28 06:43:29;;;;;;;37.05;32.97;;;7.20;99.90;;;;;;5008471;28;20065;-82
2024/03/28 06:45:54;;;;;;;37.78;33.88;;;7.20;99.90;;;;;;5002400;28;20077;-80
2024/03/28 06:48:20;;;;;;;37.22;32.88;;;7.30;99.90;;;;;;4992317;28;20136;-80
2024/03/28 06:50:46;;;;;;;40.15;35.90;;;7.30;99.90;;;;;;4990406;28;20068;-80
2024/03/28 06:53:12;;;;;;;40.40;34.90;;;7.30;99.90;;;;;;5001211;28;20104;-79
2024/03/28 06:55:38;;;;;;;38.42;34.30;;;7.40;99.90;;;;;;5004218;28;20049;-80
2024/03/28 06:58:04;;;;;;;36.95;32.95;;;7.40;99.90;;;;;;4988041;28;20040;-79
2024/03/28 07:00:30;;;;;;;40.67;36.15;;;7.40;99.90;;;;;;5004046;28;20119;-79
2024/03/28 07:02:56;;;;;;;36.50;32.45;;;7.50;99.90;;;;;;5000168;28;20042;-80
2024/03/28 07:05:23;;;;;;;40.20;33.63;;;7.50;99.90;;;;;;4991330;28;20045;-80
2024/03/28 07:07:49;;;;;;;37.03;33.10;;;7.50;99.90;;;;;;5020051;28;20105;-79
2024/03/28 07:10:15;;;;;;;39.33;33.72;;;7.60;99.90;;;;;;5005827;28;20141;-80
2024/03/28 07:12:40;;;;;;;36.13;32.22;;;7.60;99.90;;;;;;4991911;28;20140;-80
2024/03/28 07:15:09;;;;;;;37.38;33.25;;;7.60;99.90;;;;;;5003448;28;20037;-80
2024/03/28 07:17:37;;;;;;;36.38;32.13;;;7.60;99.90;;;;;;5007025;28;20045;-80
2024/03/28 07:20:03;;;;;;;36.17;31.05;;;7.70;99.90;;;;;;4989822;28;20092;-79
2024/03/28 07:22:30;;;;;;;32.63;29.13;;;7.70;99.90;;;;;;5005095;28;20046;-79
2024/03/28 07:24:56;;;;;;;34.33;30.63;;;7.80;99.90;;;;;;4987264;28;20700;-80
2024/03/28 07:27:28;;;;;;;31.00;27.67;;;7.90;99.90;;;;;;5004066;28;20513;-80
2024/03/28 07:29:54;;;;;;;32.35;28.30;;;7.90;99.90;;;;;;5004303;28;20048;-79
2024/03/28 07:32:24;;;;;;;32.72;29.00;;;8.00;99.90;;;;;;4988681;28;20046;-80
2024/03/28 07:34:49;;;;;;;31.25;27.85;;;8.10;99.90;;;;;;4990631;28;20053;-80
2024/03/28 07:37:15;;;;;;;30.08;26.88;;;8.20;99.90;;;;;;4988002;28;20523;-79
2024/03/28 07:39:41;;;;;;;27.70;24.80;;;8.30;99.90;;;;;;5006368;28;20053;-80
2024/03/28 07:42:07;;;;;;;28.52;24.08;;;8.40;99.90;;;;;;4991227;28;20044;-80
2024/03/28 07:44:33;;;;;;;28.58;25.48;;;8.40;99.90;;;;;;4988475;28;20042;-80
2024/03/28 07:46:59;;;;;;;30.40;26.70;;;8.50;99.90;;;;;;4992186;28;20052;-80
2024/03/28 07:49:26;;;;;;;28.35;25.33;;;8.60;99.90;;;;;;5000922;28;20045;-80
2024/03/28 07:51:52;;;;;;;27.35;24.45;;;8.70;99.90;;;;;;5005524;28;20498;-79
2024/03/28 07:54:18;;;;;;;30.02;24.38;;;8.80;99.90;;;;;;4986802;28;20096;-79
2024/03/28 07:56:43;;;;;;;26.50;22.63;;;8.90;99.90;;;;;;4991565;28;20053;-80
2024/03/28 07:59:10;;;;;;;22.77;20.38;;;8.90;99.90;;;;;;4997636;28;20107;-80
2024/03/28 08:01:36;;;;;;;23.70;21.20;;;8.90;99.90;;;;;;4985545;28;20520;-79
2024/03/28 08:04:03;;;;;;;24.98;22.10;;;9.00;99.90;;;;;;4988907;28;20049;-79
2024/03/28 08:06:33;;;;;;;23.75;21.13;;;8.90;99.90;;;;;;5003613;28;20457;-80
2024/03/28 08:08:59;;;;;;;20.83;18.60;;;9.00;99.90;;;;;;4989107;28;20041;-79
2024/03/28 08:11:25;;;;;;;22.08;19.73;;;9.00;99.90;;;;;;5001010;28;20057;-80
2024/03/28 08:13:52;;;;;;;24.23;19.65;;;9.00;99.90;;;;;;4986798;28;20498;-79
2024/03/28 08:16:20;;;;;;;22.25;19.30;;;9.10;99.90;;;;;;4993917;28;20055;-79
2024/03/28 08:18:46;;;;;;;21.15;18.88;;;9.30;99.90;;;;;;5017854;28;20041;-78
2024/03/28 08:21:13;;;;;;;19.92;16.52;;;9.40;99.90;;;;;;4991411;28;20119;-80
2024/03/28 08:23:39;;;;;;;17.60;15.52;;;9.40;99.90;;;;;;4988558;28;20103;-81
2024/03/28 08:26:05;;;;;;;19.15;16.67;;;9.40;99.90;;;;;;5005281;28;20057;-79
2024/03/28 08:28:31;;;;;;;18.13;16.23;;;9.50;99.90;;;;;;5032097;28;20480;-80
2024/03/28 08:30:57;;;;;;;18.67;15.88;;;9.50;99.90;;;;;;4989381;28;20049;-81
2024/03/28 08:33:24;;;;;;;16.88;15.07;;;9.50;99.90;;;;;;4987323;28;20044;-81
2024/03/28 08:35:50;;;;;;;16.40;14.32;;;9.50;99.90;;;;;;5004887;28;20049;-81
2024/03/28 08:38:15;;;;;;;16.35;14.60;;;9.60;99.90;;;;;;5000628;28;20064;-81
2024/03/28 08:40:42;;;;;;;16.60;14.57;;;9.60;99.90;;;;;;5005525;28;20464;-80
2024/03/28 08:43:08;;;;;;;15.77;14.18;;;9.60;99.90;;;;;;5000809;28;20394;-81
2024/03/28 08:45:34;;;;;;;16.50;14.57;;;9.60;99.90;;;;;;4986796;28;20051;-81
2024/03/28 08:48:01;;;;;;;15.70;14.10;;;9.60;99.90;;;;;;4984193;28;20053;-81
2024/03/28 08:50:28;;;;;;;16.83;14.52;;;9.50;99.90;;;;;;4985553;28;20405;-81
2024/03/28 08:52:54;;;;;;;15.00;13.35;;;9.60;99.90;;;;;;4988828;28;20056;-81
2024/03/28 08:55:22;;;;;;;15.35;13.75;;;9.50;99.90;;;;;;5004865;28;20141;-81
2024/03/28 08:57:50;;;;;;;15.07;13.48;;;9.50;99.90;;;;;;4994014;28;20049;-81
2024/03/28 09:00:19;;;;;;;17.02;13.95;;;9.60;99.90;;;;;;4991139;28;20129;-80
2024/03/28 09:02:46;;;;;;;14.82;13.23;;;9.60;99.90;;;;;;4991671;28;20057;-81
2024/03/28 09:05:15;;;;;;;14.18;12.40;;;9.70;99.90;;;;;;4991174;28;20041;-81
2024/03/28 09:07:41;;;;;;;14.13;12.65;;;9.80;99.90;;;;;;4989537;28;20561;-81
2024/03/28 09:10:07;;;;;;;14.05;12.63;;;9.90;99.90;;;;;;5003681;28;20042;-81
2024/03/28 09:12:39;;;;;;;13.32;11.85;;;10.10;99.90;;;;;;5009803;28;20132;-80
2024/03/28 09:15:09;;;;;;;11.80;10.40;;;10.30;99.90;;;;;;4989224;28;20064;-81
2024/03/28 09:17:35;;;;;;;11.48;10.30;;;10.40;99.90;;;;;;5027498;28;20040;-82
2024/03/28 09:20:05;;;;;;;11.90;9.77;;;10.60;99.90;;;;;;5008794;28;20131;-82
2024/03/28 09:22:37;;;;;;;11.15;9.77;;;10.70;99.90;;;;;;5008077;28;20198;-81
2024/03/28 09:25:06;;;;;;;10.68;9.52;;;10.90;99.90;;;;;;4992257;28;21272;-80
2024/03/28 09:27:32;;;;;;;10.40;9.30;;;11.10;99.90;;;;;;5035554;28;20037;-81
2024/03/28 09:29:58;;;;;;;8.88;8.00;;;11.20;99.90;;;;;;5020165;28;20414;-82
2024/03/28 09:32:24;;;;;;;8.27;6.68;;;11.30;99.90;;;;;;5004252;28;20038;-83
2024/03/28 09:34:49;;;;;;;8.98;6.88;;;11.50;99.90;;;;;;4990435;28;20476;-83
2024/03/28 09:37:16;;;;;;;6.93;6.22;;;11.70;99.90;;;;;;5009074;28;20088;-82
2024/03/28 09:39:45;;;;;;;6.43;5.65;;;11.90;99.90;;;;;;5037958;28;20057;-82
2024/03/28 09:42:13;;;;;;;6.70;5.55;;;12.10;99.90;;;;;;4992607;28;20124;-82
2024/03/28 09:44:39;;;;;;;6.10;5.32;;;12.20;99.90;;;;;;4988955;28;20053;-83
2024/03/28 09:47:07;;;;;;;6.00;5.40;;;12.20;99.90;;;;;;5008890;28;20060;-81
2024/03/28 09:49:36;;;;;;;6.43;5.75;;;12.20;99.90;;;;;;5002562;28;20033;-87
2024/03/28 09:52:04;;;;;;;6.53;5.83;;;12.10;99.90;;;;;;4986964;28;20114;-81
2024/03/28 09:54:33;;;;;;;6.50;5.80;;;12.00;99.90;;;;;;4990514;28;20049;-81
2024/03/28 09:56:59;;;;;;;6.93;6.20;;;11.80;99.90;;;;;;5005306;28;20053;-81
2024/03/28 09:59:27;;;;;;;6.97;5.97;;;11.60;99.90;;;;;;5038267;28;20049;-82
2024/03/28 10:01:59;;;;;;;6.15;5.55;;;11.50;99.90;;;;;;4988814;28;20140;-80
2024/03/28 10:04:29;;;;;;;6.50;5.15;;;11.40;99.90;;;;;;5007463;28;20670;-82
2024/03/28 10:06:56;;;;;;;5.20;4.57;;;11.40;99.90;;;;;;5000441;28;20075;-84
2024/03/28 10:09:23;;;;;;;4.63;3.95;;;11.30;99.90;;;;;;5006929;28;20049;-82
2024/03/28 10:11:49;;;;;;;5.38;3.83;;;11.20;99.90;;;;;;4985608;28;20053;-81
2024/03/28 10:14:22;;;;;;;5.18;3.90;;;11.10;99.90;;;;;;5034589;28;20041;-82
2024/03/28 10:16:49;;;;;;;5.43;3.92;;;11.10;99.90;;;;;;4990341;28;20179;-84
2024/03/28 10:19:18;;;;;;;4.57;4.00;;;11.00;99.90;;;;;;5020369;28;20052;-80
2024/03/28 10:21:45;;;;;;;5.00;3.80;;;11.00;99.90;;;;;;5019485;28;20065;-81
2024/03/28 10:24:20;;;;;;;5.90;4.10;;;11.00;99.90;;;;;;5004870;28;20095;-82
2024/03/28 10:26:46;;;;;;;4.60;3.83;;;11.00;99.90;;;;;;5006220;28;20049;-82
2024/03/28 10:29:12;;;;;;;7.68;3.70;;;11.00;99.90;;;;;;5004311;28;20044;-83
2024/03/28 10:31:42;;;;;;;4.90;3.90;;;10.90;99.90;;;;;;4988697;28;20041;-81
2024/03/28 10:34:15;;;;;;;4.43;3.90;;;10.90;99.90;;;;;;5035170;28;20057;-80
2024/03/28 10:36:41;;;;;;;5.63;4.05;;;10.80;99.90;;;;;;4993542;28;20099;-80
2024/03/28 10:39:08;;;;;;;5.00;3.60;;;10.80;99.90;;;;;;4988163;28;20449;-81
2024/03/28 10:41:46;;;;;;;4.80;4.00;;;10.70;99.90;;;;;;4991287;28;20456;-81
2024/03/28 10:44:15;;;;;;;4.30;3.70;;;10.60;99.90;;;;;;5004459;28;20132;-82
2024/03/28 10:46:41;;;;;;;4.45;3.67;;;10.60;99.90;;;;;;5003138;28;20056;-83
2024/03/28 10:49:07;;;;;;;5.05;3.75;;;10.60;99.90;;;;;;4989383;28;20041;-83
2024/03/28 10:51:36;;;;;;;5.18;3.50;;;10.50;99.90;;;;;;4989373;28;20624;-82
2024/03/28 10:54:25;;;;;;;5.03;3.47;;;10.40;99.90;;;;;;4992404;28;20053;-83
2024/03/28 10:56:53;;;;;;;5.47;3.40;;;10.30;99.90;;;;;;4990433;28;20050;-84
2024/03/28 10:59:21;;;;;;;4.32;3.22;;;10.20;99.90;;;;;;5009392;28;20506;-81
2024/03/28 11:01:48;;;;;;;5.35;3.75;;;10.10;99.90;;;;;;5004356;28;20064;-86
2024/03/28 11:04:18;;;;;;;3.50;2.90;;;10.00;99.90;;;;;;5007929;28;20054;-81
2024/03/28 11:06:45;;;;;;;4.63;2.63;;;9.90;99.90;;;;;;4988062;28;20049;-84
2024/03/28 11:09:13;;;;;;;3.33;2.17;;;9.80;99.90;;;;;;4985957;28;20041;-82
2024/03/28 11:11:40;;;;;;;5.45;2.10;;;9.70;99.90;;;;;;4987079;28;20046;-85
2024/03/28 11:14:06;;;;;;;3.10;2.10;;;9.40;99.90;;;;;;5008801;28;20034;-82
2024/03/28 11:16:32;;;;;;;1.88;1.40;;;9.30;99.90;;;;;;5009600;28;20053;-86
2024/03/28 11:19:02;;;;;;;1.70;1.20;;;9.20;99.90;;;;;;5029842;28;20068;-85
2024/03/28 11:21:30;;;;;;;2.05;1.42;;;9.00;99.90;;;;;;4975681;28;20034;-83
2024/03/28 11:23:56;;;;;;;2.10;1.60;;;8.90;99.90;;;;;;5017099;28;20053;-83
2024/03/28 11:26:23;;;;;;;3.60;1.77;;;8.70;99.90;;;;;;4986197;28;20064;-85
2024/03/28 11:29:03;;;;;;;2.10;1.60;;;8.60;99.90;;;;;;5021108;28;20045;-82
2024/03/28 11:31:29;;;;;;;3.00;2.00;;;8.50;99.90;;;;;;4983765;28;20057;-84
2024/03/28 11:34:03;;;;;;;3.72;2.20;;;8.30;99.90;;;;;;5028051;28;20073;-83
2024/03/28 11:36:30;;;;;;;2.67;1.85;;;8.20;99.90;;;;;;4984874;28;21244;-82
2024/03/28 11:38:56;;;;;;;3.10;2.33;;;8.20;99.90;;;;;;5025620;28;20080;-81
2024/03/28 11:41:23;;;;;;;2.65;1.92;;;8.10;99.90;;;;;;4993431;28;20486;-82
2024/03/28 11:43:50;;;;;;;2.90;2.30;;;8.20;99.90;;;;;;5021949;28;20050;-82
2024/03/28 11:46:16;;;;;;;2.40;2.10;;;8.10;99.90;;;;;;5009782;28;20585;-82
2024/03/28 11:48:42;;;;;;;3.35;2.45;;;8.10;99.90;;;;;;4983048;28;20146;-82
2024/03/28 11:51:08;;;;;;;3.53;2.50;;;8.10;99.90;;;;;;5003176;28;20041;-82
2024/03/28 11:53:40;;;;;;;3.80;2.40;;;8.10;99.90;;;;;;5030693;28;20199;-82
2024/03/28 11:56:07;;;;;;;2.53;2.03;;;8.10;99.90;;;;;;5012861;28;20045;-82
2024/03/28 11:58:34;;;;;;;3.13;2.10;;;8.10;99.90;;;;;;5008755;28;20045;-81
2024/03/28 12:01:04;;;;;;;3.38;2.20;;;8.10;99.90;;;;;;4991370;28;20045;-83
2024/03/28 12:03:30;;;;;;;2.97;1.75;;;8.20;99.90;;;;;;4992189;28;20494;-82
2024/03/28 12:05:57;;;;;;;3.85;2.00;;;8.20;99.90;;;;;;5002926;28;20037;-83
2024/03/28 12:08:25;;;;;;;2.17;1.80;;;8.10;99.90;;;;;;4987387;28;20046;-82
2024/03/28 12:10:51;;;;;;;2.88;2.05;;;8.20;99.90;;;;;;4987803;28;20044;-82
2024/03/28 12:13:18;;;;;;;2.15;1.73;;;8.10;99.90;;;;;;4987968;28;20095;-81
2024/03/28 12:15:53;;;;;;;2.05;1.85;;;8.30;99.90;;;;;;4988454;28;20136;-84
2024/03/28 12:18:19;;;;;;;2.40;1.90;;;8.20;99.90;;;;;;4987953;28;20048;-82
2024/03/28 12:20:45;;;;;;;2.20;1.88;;;8.30;99.90;;;;;;5004403;28;20494;-82
2024/03/28 12:23:12;;;;;;;2.17;1.98;;;8.30;99.90;;;;;;5003114;28;20414;-82
2024/03/28 12:25:44;;;;;;;2.47;2.10;;;8.30;99.90;;;;;;4984468;28;20096;-82
2024/03/28 12:28:17;;;;;;;2.55;2.22;;;8.20;99.90;;;;;;5016898;28;20046;-82
2024/03/28 12:30:51;;;;;;;3.35;2.95;;;8.30;99.90;;;;;;5008388;28;20128;-81
2024/03/28 12:33:17;;;;;;;3.05;2.72;;;8.30;99.90;;;;;;5008350;28;20052;-81
2024/03/28 12:35:44;;;;;;;3.38;2.70;;;8.30;99.90;;;;;;5009812;28;20672;-81
2024/03/28 12:38:14;;;;;;;3.53;2.50;;;8.30;99.90;;;;;;5037042;28;20560;-82
2024/03/28 12:40:44;;;;;;;;;;;8.40;99.90;;;;;;4994744;28;20120;-82
2024/03/28 12:43:17;;;;;;;2.72;2.03;;;8.30;99.90;;;;;;5036284;28;20390;-82
2024/03/28 12:45:42;;;;;;;1.85;1.40;;;8.30;99.90;;;;;;4993330;28;20106;-84
2024/03/28 12:48:12;;;;;;;3.45;1.42;;;8.30;99.90;;;;;;5008158;28;20049;-83